Nemo, South Dakota
Current Conditions -  °F | °C
As of 11:58 AM on Thursday 23 Oct 2014 (Local Time) from KRCA Reporting Station
Clear Clear  
Wind Chill: 64°   Ceiling: Unl
Heat Index: 64°   Visibility: 10mi
Dew Point: 26°   Wind: 8mph
Humidity: 23%   Direction: 140°SE
Pressure: 29.94"   Gusts: NA
Location:  44.19°N, 103.51°W
Report Text: KRCA 231758Z AUTO 14007KT 10SM CLR 18/M03 A2994 RMK AO2 SLP137 T01801034 10180 20023 58011 $
Loading
Personal Weather Stations






























Interactive Weather Map
Tropical Storm Tracking
New forecast layout! Learn more

10-Day Weather Forecast

Advertisements
Track Severe Weather on mobile